Time;durP1;ratioP1;P1;durP2;ratioP2;P2;SDS_P1;SDS_P2;PMS_P1;PMS_P2;Temp;Humidity;BMP_temperature;BMP_pressure;BME280_temperature;BME280_humidity;BME280_pressure;Samples;Min_cycle;Max_cycle;Signal;HPM_P1;HPM_P2
2023/07/22 00:00:45;;;;;;;13.80;6.47;;;14.30;99.90;;;;;;5076895;28;20033;-81
2023/07/22 00:03:11;;;;;;;9.85;6.75;;;14.40;99.90;;;;;;5042517;28;20036;-82
2023/07/22 00:05:37;;;;;;;10.20;6.50;;;14.20;99.90;;;;;;5071590;28;20222;-80
2023/07/22 00:08:03;;;;;;;12.43;7.50;;;14.30;99.90;;;;;;5059310;28;20060;-80
2023/07/22 00:10:29;;;;;;;9.85;6.07;;;14.30;99.90;;;;;;5043348;28;20044;-81
2023/07/22 00:12:55;;;;;;;15.00;7.40;;;14.30;99.90;;;;;;5043795;28;20025;-81
2023/07/22 00:15:22;;;;;;;12.82;6.72;;;14.20;99.90;;;;;;5059514;28;20223;-82
2023/07/22 00:17:48;;;;;;;14.05;7.80;;;14.20;99.90;;;;;;5074726;28;20223;-81
2023/07/22 00:20:14;;;;;;;11.32;6.22;;;14.30;99.90;;;;;;5059800;28;20033;-81
2023/07/22 00:22:40;;;;;;;12.00;6.90;;;14.20;99.90;;;;;;5072749;28;20040;-81
2023/07/22 00:25:14;;;;;;;8.57;5.78;;;14.10;99.90;;;;;;5059364;28;20334;-81
2023/07/22 00:27:41;;;;;;;;;;;14.20;99.90;;;;;;5075936;28;20110;-81
2023/07/22 00:30:08;;;;;;;11.13;6.43;;;14.10;99.90;;;;;;5059021;28;19912;-80
2023/07/22 00:32:37;;;;;;;10.88;6.20;;;14.10;99.90;;;;;;5043771;28;20045;-80
2023/07/22 00:35:05;;;;;;;10.63;6.30;;;14.20;99.90;;;;;;5076165;28;20040;-80
2023/07/22 00:37:32;;;;;;;10.93;6.35;;;14.00;99.90;;;;;;5059400;28;20188;-83
2023/07/22 00:39:57;;;;;;;13.25;7.10;;;14.00;99.90;;;;;;5057752;28;20386;-82
2023/07/22 00:42:23;;;;;;;11.82;6.63;;;14.10;99.90;;;;;;5077913;28;20029;-82
2023/07/22 00:44:49;;;;;;;11.00;6.75;;;14.10;99.90;;;;;;5043838;28;20029;-84
2023/07/22 00:47:16;;;;;;;9.65;5.93;;;14.00;99.90;;;;;;5043030;28;20043;-81
2023/07/22 00:49:41;;;;;;;10.00;6.10;;;14.00;99.90;;;;;;5077443;28;20029;-82
2023/07/22 00:52:07;;;;;;;11.50;6.30;;;13.80;99.90;;;;;;5057623;28;20107;-81
2023/07/22 00:54:33;;;;;;;10.30;6.63;;;13.80;99.90;;;;;;5060445;28;20072;-81
2023/07/22 00:56:59;;;;;;;10.88;6.65;;;13.80;99.90;;;;;;5043265;28;20040;-81
2023/07/22 00:59:26;;;;;;;10.52;6.78;;;13.70;99.90;;;;;;5060401;28;20045;-82
2023/07/22 01:01:52;;;;;;;8.90;6.30;;;14.00;99.90;;;;;;5057160;28;20025;-82
2023/07/22 01:04:22;;;;;;;12.52;6.20;;;13.60;99.90;;;;;;5040204;28;20083;-81
2023/07/22 01:06:50;;;;;;;8.93;6.10;;;13.70;99.90;;;;;;5084405;28;20260;-81
2023/07/22 01:09:16;;;;;;;11.43;5.70;;;13.70;99.90;;;;;;5076356;28;20105;-82
2023/07/22 01:11:41;;;;;;;9.75;6.15;;;13.60;99.90;;;;;;5039033;28;20191;-82
2023/07/22 01:14:07;;;;;;;9.13;5.53;;;13.60;99.90;;;;;;5044997;28;20056;-81
2023/07/22 01:16:34;;;;;;;10.32;6.07;;;13.60;99.90;;;;;;5070402;28;20032;-82
2023/07/22 01:19:00;;;;;;;9.20;5.93;;;13.60;99.90;;;;;;5061112;28;20068;-82
2023/07/22 01:21:27;;;;;;;9.73;6.13;;;13.50;99.90;;;;;;5062274;28;20025;-80
2023/07/22 01:23:53;;;;;;;8.55;5.40;;;13.40;99.90;;;;;;5062584;28;20248;-81
2023/07/22 01:26:19;;;;;;;7.95;5.53;;;13.40;99.90;;;;;;5062008;28;20430;-80
2023/07/22 01:28:45;;;;;;;9.18;5.55;;;13.50;99.90;;;;;;5045692;28;20082;-81
2023/07/22 01:31:11;;;;;;;8.70;4.95;;;13.50;99.90;;;;;;5042111;28;20247;-83
2023/07/22 01:33:37;;;;;;;7.68;4.55;;;13.40;99.90;;;;;;5029118;28;20099;-81
2023/07/22 01:36:04;;;;;;;7.50;4.82;;;13.50;99.90;;;;;;5045604;28;20100;-82
2023/07/22 01:38:31;;;;;;;9.88;5.00;;;13.40;99.90;;;;;;5077854;28;20040;-83
2023/07/22 01:40:57;;;;;;;8.65;4.78;;;13.40;99.90;;;;;;5078677;28;20056;-84
2023/07/22 01:43:24;;;;;;;7.07;4.32;;;13.50;99.90;;;;;;5094990;28;20032;-83
2023/07/22 01:45:49;;;;;;;8.98;4.40;;;13.40;99.90;;;;;;5062052;28;20107;-81
2023/07/22 01:48:16;;;;;;;8.48;4.53;;;13.30;99.90;;;;;;5058747;28;20037;-82
2023/07/22 01:50:41;;;;;;;7.75;4.35;;;13.40;99.90;;;;;;5044938;28;20045;-81
2023/07/22 01:53:07;;;;;;;6.68;4.25;;;13.30;99.90;;;;;;5058395;28;20223;-81
2023/07/22 01:55:33;;;;;;;7.63;4.72;;;13.30;99.90;;;;;;5060992;28;20059;-81
2023/07/22 01:57:59;;;;;;;7.55;4.55;;;13.20;99.90;;;;;;5051298;28;20036;-81
2023/07/22 02:00:26;;;;;;;8.15;4.72;;;13.10;99.90;;;;;;5065471;28;20028;-82
2023/07/22 02:02:52;;;;;;;9.93;4.82;;;13.10;99.90;;;;;;5045151;28;20067;-83
2023/07/22 02:05:18;;;;;;;6.70;4.50;;;13.10;99.90;;;;;;5058446;28;20104;-83
2023/07/22 02:07:44;;;;;;;7.25;4.47;;;13.10;99.90;;;;;;5062003;28;20041;-82
2023/07/22 02:10:10;;;;;;;11.73;4.68;;;13.20;99.90;;;;;;5029545;28;20316;-80
2023/07/22 02:12:36;;;;;;;8.25;4.65;;;13.10;99.90;;;;;;5061706;28;20116;-80
2023/07/22 02:15:02;;;;;;;8.18;4.57;;;13.10;99.90;;;;;;5028915;28;20337;-81
2023/07/22 02:17:30;;;;;;;7.70;4.50;;;13.20;99.90;;;;;;5044931;28;20033;-81
2023/07/22 02:19:56;;;;;;;9.32;4.22;;;13.00;99.90;;;;;;5040032;28;20096;-80
2023/07/22 02:22:22;;;;;;;7.28;3.65;;;12.90;99.90;;;;;;5042095;28;20036;-80
2023/07/22 02:24:47;;;;;;;10.18;4.72;;;12.90;99.90;;;;;;5043904;28;20064;-80
2023/07/22 02:27:14;;;;;;;7.18;3.85;;;13.00;99.90;;;;;;5077390;28;20360;-80
2023/07/22 02:29:40;;;;;;;8.52;4.15;;;13.00;99.90;;;;;;5060807;28;20043;-81
2023/07/22 02:32:06;;;;;;;7.60;4.80;;;13.00;99.90;;;;;;5044783;28;20128;-82
2023/07/22 02:34:32;;;;;;;6.90;4.10;;;13.00;99.90;;;;;;5045222;28;20052;-81
2023/07/22 02:36:58;;;;;;;5.65;3.78;;;12.90;99.90;;;;;;5024553;28;20274;-81
2023/07/22 02:39:24;;;;;;;7.28;4.10;;;12.90;99.90;;;;;;5076043;28;20029;-81
2023/07/22 02:41:49;;;;;;;7.35;3.88;;;12.90;99.90;;;;;;5061170;28;20032;-80
2023/07/22 02:44:15;;;;;;;8.18;4.43;;;12.90;99.90;;;;;;5093909;28;20029;-81
2023/07/22 02:46:41;;;;;;;6.53;4.18;;;12.80;99.90;;;;;;5078298;28;20243;-81
2023/07/22 02:49:07;;;;;;;6.70;4.28;;;12.70;99.90;;;;;;5045539;28;20040;-81
2023/07/22 02:51:32;;;;;;;8.65;4.35;;;12.20;99.90;;;;;;5076264;28;20858;-81
2023/07/22 02:53:58;;;;;;;9.77;4.25;;;12.80;99.90;;;;;;5075047;28;20061;-82
2023/07/22 02:56:24;;;;;;;7.90;4.60;;;12.80;99.90;;;;;;5060603;28;20049;-82
2023/07/22 02:58:50;;;;;;;7.07;4.10;;;12.80;99.90;;;;;;5060984;28;20227;-83
2023/07/22 03:01:16;;;;;;;7.93;4.55;;;12.70;99.90;;;;;;5060790;28;20052;-82
2023/07/22 03:03:42;;;;;;;8.90;4.88;;;12.70;99.90;;;;;;5077439;28;20286;-82
2023/07/22 03:06:09;;;;;;;8.15;4.25;;;12.70;99.90;;;;;;5078109;28;20112;-82
2023/07/22 03:08:35;;;;;;;6.78;4.72;;;12.80;99.90;;;;;;5076864;28;20033;-82
2023/07/22 03:11:01;;;;;;;7.88;4.65;;;12.90;99.90;;;;;;5055405;28;20029;-82
2023/07/22 03:13:29;;;;;;;10.38;5.13;;;12.90;99.90;;;;;;5026528;28;20028;-82
2023/07/22 03:15:56;;;;;;;9.60;4.85;;;12.90;99.90;;;;;;5061409;28;20045;-83
2023/07/22 03:18:22;;;;;;;12.82;5.50;;;12.80;99.90;;;;;;5077320;28;20060;-81
2023/07/22 03:20:48;;;;;;;10.30;5.72;;;12.80;99.90;;;;;;5060229;28;20040;-81
2023/07/22 03:23:14;;;;;;;7.60;4.60;;;12.80;99.90;;;;;;5060547;28;20363;-81
2023/07/22 03:25:41;;;;;;;9.43;4.40;;;12.80;99.90;;;;;;5076738;28;20040;-82
2023/07/22 03:28:07;;;;;;;9.13;4.43;;;12.70;99.90;;;;;;5091483;28;20303;-82
2023/07/22 03:30:33;;;;;;;7.45;4.65;;;12.70;99.90;;;;;;5059518;28;20043;-83
2023/07/22 03:33:00;;;;;;;9.00;4.65;;;12.70;99.90;;;;;;5076855;28;20104;-82
2023/07/22 03:35:28;;;;;;;8.15;4.72;;;12.70;99.90;;;;;;5055606;28;20097;-83
2023/07/22 03:37:54;;;;;;;6.30;4.43;;;12.80;99.90;;;;;;5024051;28;20041;-85
2023/07/22 03:40:20;;;;;;;7.57;4.40;;;12.80;99.90;;;;;;5054414;28;20025;-83
2023/07/22 03:42:47;;;;;;;9.45;5.07;;;12.70;99.90;;;;;;5057068;28;20554;-84
2023/07/22 03:45:13;;;;;;;9.90;5.35;;;12.80;99.90;;;;;;5086656;28;20033;-83
2023/07/22 03:47:40;;;;;;;10.48;5.35;;;12.80;99.90;;;;;;5026141;28;20354;-81
2023/07/22 03:50:07;;;;;;;9.02;5.20;;;12.80;99.90;;;;;;5058618;28;20048;-81
2023/07/22 03:52:32;;;;;;;11.35;5.60;;;12.90;99.90;;;;;;5075721;28;20041;-82
2023/07/22 03:54:58;;;;;;;10.52;4.93;;;12.80;99.90;;;;;;5042833;28;20083;-82
2023/07/22 03:57:28;;;;;;;9.68;5.63;;;12.90;99.90;;;;;;5039161;28;20033;-80
2023/07/22 03:59:57;;;;;;;8.85;5.25;;;13.00;99.90;;;;;;5047385;28;20036;-80
2023/07/22 04:02:23;;;;;;;7.72;4.88;;;13.00;99.90;;;;;;5059433;28;20424;-80
2023/07/22 04:04:50;;;;;;;11.30;5.60;;;13.10;99.90;;;;;;5075676;28;20103;-82
2023/07/22 04:07:16;;;;;;;10.82;5.47;;;13.10;99.90;;;;;;5076118;28;20044;-82
2023/07/22 04:09:42;;;;;;;9.38;5.15;;;13.20;99.90;;;;;;5029558;28;20343;-83
2023/07/22 04:12:08;;;;;;;9.40;5.28;;;13.20;99.90;;;;;;5060369;28;20360;-83
2023/07/22 04:14:34;;;;;;;10.30;5.22;;;13.20;99.90;;;;;;5053695;28;20036;-85
2023/07/22 04:16:59;;;;;;;8.85;4.85;;;13.40;99.90;;;;;;5043155;28;20071;-85
2023/07/22 04:19:25;;;;;;;7.50;4.30;;;13.30;99.90;;;;;;5048720;28;20310;-81
2023/07/22 04:21:51;;;;;;;9.38;5.00;;;13.50;99.90;;;;;;5024412;28;20025;-82
2023/07/22 04:24:16;;;;;;;7.30;4.75;;;13.60;99.90;;;;;;5043495;28;20110;-81
2023/07/22 04:26:45;;;;;;;8.52;4.72;;;13.50;99.90;;;;;;5091165;28;20048;-81
2023/07/22 04:29:12;;;;;;;7.40;4.68;;;13.60;99.90;;;;;;5059625;28;20029;-81
2023/07/22 04:31:42;;;;;;;7.35;4.32;;;13.60;99.90;;;;;;5043580;28;20074;-84
2023/07/22 04:34:09;;;;;;;11.93;5.20;;;13.70;99.90;;;;;;5076795;28;20295;-83
2023/07/22 04:36:36;;;;;;;9.32;4.53;;;13.70;99.90;;;;;;5075258;28;20082;-81
2023/07/22 04:39:04;;;;;;;9.45;4.95;;;13.70;99.90;;;;;;5059886;28;20029;-82
2023/07/22 04:41:31;;;;;;;9.98;4.70;;;13.90;99.90;;;;;;5037321;28;20029;-83
2023/07/22 04:43:58;;;;;;;9.63;4.40;;;13.90;99.90;;;;;;5077342;28;20029;-83
2023/07/22 04:46:28;;;;;;;7.95;4.20;;;13.90;99.90;;;;;;5044091;28;20029;-82
2023/07/22 04:48:55;;;;;;;6.45;4.00;;;14.00;99.90;;;;;;5046218;28;20033;-83
2023/07/22 04:51:21;;;;;;;10.95;4.55;;;14.70;99.90;;;;;;5099299;28;20024;-82
2023/07/22 04:53:47;;;;;;;8.73;4.40;;;14.10;99.90;;;;;;5043117;28;20262;-85
2023/07/22 04:56:12;;;;;;;7.28;4.90;;;14.20;99.90;;;;;;5060197;28;20118;-82
2023/07/22 04:58:38;;;;;;;8.63;5.05;;;14.00;99.90;;;;;;5048742;28;20040;-82
2023/07/22 05:01:04;;;;;;;8.02;5.25;;;14.20;99.90;;;;;;5091338;28;20060;-81
2023/07/22 05:03:30;;;;;;;9.38;5.28;;;14.10;99.90;;;;;;5078900;28;20025;-83
2023/07/22 05:05:57;;;;;;;9.77;5.13;;;14.30;99.90;;;;;;5046462;28;20414;-82
2023/07/22 05:08:23;;;;;;;8.95;5.60;;;14.20;99.90;;;;;;5030379;28;20320;-82
2023/07/22 05:10:49;;;;;;;10.32;4.90;;;14.10;99.90;;;;;;5046368;28;20286;-83
2023/07/22 05:13:18;;;;;;;9.65;4.97;;;14.20;99.90;;;;;;5079141;28;20327;-82
2023/07/22 05:15:44;;;;;;;8.18;5.03;;;14.30;99.90;;;;;;5079159;28;20081;-84
2023/07/22 05:18:10;;;;;;;9.13;5.15;;;14.50;99.90;;;;;;5052833;28;20112;-82
2023/07/22 05:20:38;;;;;;;8.63;4.72;;;14.40;99.90;;;;;;5027647;28;20021;-81
2023/07/22 05:23:03;;;;;;;10.00;5.68;;;14.50;99.90;;;;;;5045785;28;20498;-83
2023/07/22 05:25:29;;;;;;;10.40;5.25;;;14.50;99.90;;;;;;5061410;28;20045;-84
2023/07/22 05:27:55;;;;;;;9.95;5.60;;;14.50;99.90;;;;;;5083316;28;20025;-82
2023/07/22 05:30:21;;;;;;;9.32;5.68;;;14.50;99.90;;;;;;5048456;28;20467;-84
2023/07/22 05:32:46;;;;;;;7.75;5.03;;;14.60;99.90;;;;;;5029762;28;20028;-83
2023/07/22 05:35:12;;;;;;;7.07;5.00;;;14.50;99.90;;;;;;5046181;28;20071;-82
2023/07/22 05:37:39;;;;;;;9.35;5.60;;;14.60;99.90;;;;;;5044150;28;20031;-83
2023/07/22 05:40:07;;;;;;;8.95;5.68;;;14.70;99.90;;;;;;5079048;28;20033;-81
2023/07/22 05:42:33;;;;;;;7.75;5.68;;;14.70;99.90;;;;;;5046303;28;20052;-82
2023/07/22 05:45:00;;;;;;;8.93;5.28;;;14.70;99.90;;;;;;5029320;28;20029;-81
2023/07/22 05:47:25;;;;;;;8.68;5.07;;;14.80;99.90;;;;;;5029107;28;20047;-81
2023/07/22 05:49:51;;;;;;;8.90;5.47;;;14.90;99.90;;;;;;5044920;28;20033;-81
2023/07/22 05:52:17;;;;;;;10.00;5.97;;;15.00;99.90;;;;;;5077985;28;20226;-81
2023/07/22 05:54:43;;;;;;;9.80;5.55;;;15.10;99.90;;;;;;5058315;28;20056;-82
2023/07/22 05:57:08;;;;;;;10.90;5.97;;;15.00;99.90;;;;;;5077363;28;20052;-81
2023/07/22 05:59:36;;;;;;;8.82;6.40;;;15.00;99.90;;;;;;5076851;28;20037;-82
2023/07/22 06:02:03;;;;;;;10.07;6.20;;;15.10;99.90;;;;;;5094799;28;20044;-82
2023/07/22 06:04:29;;;;;;;9.43;6.38;;;15.40;99.90;;;;;;5044456;28;20227;-83
2023/07/22 06:06:54;;;;;;;11.13;6.82;;;15.30;99.90;;;;;;5093680;28;20035;-83
2023/07/22 06:09:21;;;;;;;13.07;6.80;;;15.30;99.90;;;;;;5077526;28;20047;-84
2023/07/22 06:11:46;;;;;;;8.70;5.78;;;15.40;99.90;;;;;;5042226;28;20103;-82
2023/07/22 06:14:12;;;;;;;12.77;6.70;;;15.70;99.90;;;;;;5045193;28;20025;-84
2023/07/22 06:16:38;;;;;;;10.38;6.13;;;15.70;99.90;;;;;;5060815;28;20219;-81
2023/07/22 06:19:04;;;;;;;10.82;6.78;;;15.70;99.90;;;;;;5078651;28;20231;-82
2023/07/22 06:21:30;;;;;;;10.88;6.38;;;16.00;99.90;;;;;;5075109;28;20100;-83
2023/07/22 06:23:56;;;;;;;11.85;6.75;;;15.80;99.90;;;;;;5045262;28;20307;-83
2023/07/22 06:26:22;;;;;;;9.95;6.60;;;16.10;99.90;;;;;;5077569;28;20116;-83
2023/07/22 06:28:47;;;;;;;11.20;6.88;;;16.10;99.90;;;;;;5059823;28;20059;-80
2023/07/22 06:31:13;;;;;;;9.65;6.60;;;16.30;99.90;;;;;;5027654;28;20102;-81
2023/07/22 06:33:39;;;;;;;11.35;6.88;;;16.30;99.90;;;;;;5044123;28;20033;-82
2023/07/22 06:36:05;;;;;;;9.57;6.45;;;16.50;99.90;;;;;;5044077;28;20342;-80
2023/07/22 06:38:31;;;;;;;9.60;6.13;;;16.60;99.90;;;;;;5076665;28;20068;-81
2023/07/22 06:40:57;;;;;;;10.02;7.00;;;16.50;99.90;;;;;;5060170;28;20192;-81
2023/07/22 06:43:23;;;;;;;11.73;7.60;;;16.60;99.90;;;;;;5060774;28;20254;-80
2023/07/22 06:45:49;;;;;;;10.85;7.40;;;16.60;99.90;;;;;;5069431;28;20037;-80
2023/07/22 06:48:14;;;;;;;11.07;7.32;;;16.90;99.90;;;;;;5067251;28;20021;-81
2023/07/22 06:50:47;;;;;;;8.48;6.28;;;16.90;99.90;;;;;;5044046;28;20041;-81
2023/07/22 06:53:14;;;;;;;13.05;7.82;;;17.00;99.90;;;;;;5077310;28;20102;-81
2023/07/22 06:55:47;;;;;;;10.77;7.00;;;17.30;99.90;;;;;;5060426;28;20208;-81
2023/07/22 06:58:13;;;;;;;9.93;6.97;;;17.30;99.90;;;;;;5044361;28;20047;-81
2023/07/22 07:00:39;;;;;;;11.57;7.82;;;17.40;99.90;;;;;;5041977;28;20025;-81
2023/07/22 07:03:04;;;;;;;12.77;7.63;;;17.60;99.90;;;;;;5076764;28;20056;-80
2023/07/22 07:05:30;;;;;;;8.77;6.53;;;17.70;99.90;;;;;;5045619;28;20298;-82
2023/07/22 07:07:56;;;;;;;12.15;7.78;;;17.60;99.90;;;;;;5059462;28;20059;-79
2023/07/22 07:10:21;;;;;;;10.95;7.38;;;17.80;99.90;;;;;;5076895;28;20265;-79
2023/07/22 07:12:47;;;;;;;11.85;7.93;;;17.80;99.90;;;;;;5026592;28;20254;-80
2023/07/22 07:15:13;;;;;;;11.45;7.38;;;17.80;99.90;;;;;;5076156;28;20033;-78
2023/07/22 07:17:39;;;;;;;10.60;7.45;;;17.90;99.90;;;;;;5056518;28;20044;-76
2023/07/22 07:20:05;;;;;;;10.75;7.07;;;18.00;99.90;;;;;;5041736;28;20197;-79
2023/07/22 07:22:31;;;;;;;9.30;6.95;;;18.10;99.90;;;;;;5028170;28;20034;-79
2023/07/22 07:24:56;;;;;;;12.77;7.07;;;18.30;99.90;;;;;;5059377;28;20065;-81
2023/07/22 07:27:22;;;;;;;10.52;7.32;;;18.20;99.90;;;;;;5075892;28;20066;-78
2023/07/22 07:29:48;;;;;;;10.70;7.30;;;18.30;99.90;;;;;;5076098;28;20028;-80
2023/07/22 07:32:13;;;;;;;9.02;7.13;;;18.30;99.90;;;;;;5059447;28;20052;-79
2023/07/22 07:34:39;;;;;;;9.18;7.38;;;18.30;99.90;;;;;;5039988;28;20060;-79
2023/07/22 07:37:05;;;;;;;9.32;6.93;;;18.30;99.90;;;;;;5074246;28;20344;-79
2023/07/22 07:39:31;;;;;;;13.38;7.55;;;18.20;99.90;;;;;;5055187;28;20024;-77
2023/07/22 07:41:56;;;;;;;11.85;6.65;;;18.20;99.90;;;;;;5059345;28;20342;-79
2023/07/22 07:44:22;;;;;;;9.48;7.35;;;18.20;99.90;;;;;;5073817;28;20063;-79
2023/07/22 07:46:48;;;;;;;9.60;6.43;;;18.20;99.90;;;;;;5058218;28;20056;-80
2023/07/22 07:49:14;;;;;;;11.95;7.30;;;18.30;99.90;;;;;;5069750;28;20029;-77
2023/07/22 07:51:42;;;;;;;12.65;7.50;;;18.30;99.90;;;;;;5040734;28;20085;-77
2023/07/22 07:54:08;;;;;;;9.10;7.32;;;18.50;99.90;;;;;;5087336;28;20056;-78
2023/07/22 07:56:33;;;;;;;12.63;7.30;;;18.60;99.90;;;;;;5075626;28;20112;-76
2023/07/22 07:58:59;;;;;;;9.32;7.38;;;18.60;99.90;;;;;;5056981;28;20032;-78
2023/07/22 08:01:25;;;;;;;10.38;6.95;;;18.50;99.90;;;;;;5059046;28;20071;-78
2023/07/22 08:03:50;;;;;;;9.45;6.65;;;18.60;99.90;;;;;;5025434;28;20037;-76
2023/07/22 08:06:16;;;;;;;14.13;7.55;;;18.40;99.90;;;;;;5043305;28;20079;-77
2023/07/22 08:08:43;;;;;;;11.05;6.75;;;18.50;99.90;;;;;;5111594;28;20330;-77
2023/07/22 08:11:14;;;;;;;9.38;7.10;;;18.50;99.90;;;;;;5049815;28;20102;-76
2023/07/22 08:13:40;;;;;;;10.63;7.05;;;18.70;99.90;;;;;;5058394;28;20032;-78
2023/07/22 08:16:12;;;;;;;8.48;6.15;;;18.80;99.90;;;;;;5092453;28;20044;-80
2023/07/22 08:18:38;;;;;;;9.27;6.25;;;18.90;99.90;;;;;;5091300;28;20036;-79
2023/07/22 08:21:08;;;;;;;10.23;7.30;;;18.90;99.90;;;;;;5074848;28;20227;-78
2023/07/22 08:23:34;;;;;;;9.00;6.88;;;19.20;99.90;;;;;;5041520;28;20041;-80
2023/07/22 08:26:00;;;;;;;9.50;6.70;;;19.30;99.90;;;;;;5042012;28;20048;-77
2023/07/22 08:28:27;;;;;;;12.15;6.75;;;19.20;99.90;;;;;;5060417;28;20322;-77
2023/07/22 08:30:56;;;;;;;8.68;7.18;;;19.50;99.90;;;;;;5071703;28;20033;-79
2023/07/22 08:33:25;;;;;;;8.35;5.88;;;19.60;99.90;;;;;;5057738;28;20036;-77
2023/07/22 08:35:51;;;;;;;8.02;5.63;;;19.60;99.90;;;;;;5057881;28;20072;-78
2023/07/22 08:38:17;;;;;;;6.97;5.60;;;19.80;99.90;;;;;;5026557;28;20305;-79
2023/07/22 08:40:43;;;;;;;7.28;5.40;;;19.70;99.90;;;;;;5058279;28;20021;-80
2023/07/22 08:43:11;;;;;;;6.40;4.88;;;19.80;99.90;;;;;;5074829;28;20029;-79
2023/07/22 08:45:38;;;;;;;6.68;5.20;;;19.70;99.90;;;;;;5058410;28;20365;-81
2023/07/22 08:48:09;;;;;;;6.45;5.43;;;19.60;99.90;;;;;;5024603;28;20243;-78
2023/07/22 08:50:48;;;;;;;7.40;5.20;;;19.80;99.90;;;;;;5055224;28;20037;-78
2023/07/22 08:53:14;;;;;;;7.85;4.80;;;19.90;99.90;;;;;;5035717;28;20239;-81
2023/07/22 08:55:40;;;;;;;6.85;4.82;;;19.90;99.90;;;;;;5075130;28;20044;-81
2023/07/22 08:58:09;;;;;;;6.05;4.47;;;20.20;99.90;;;;;;5091604;28;20052;-79
2023/07/22 09:00:35;;;;;;;6.95;4.97;;;20.40;99.90;;;;;;5042377;28;20203;-80
2023/07/22 09:03:02;;;;;;;7.43;4.82;;;20.40;99.90;;;;;;5054483;28;20334;-79
2023/07/22 09:05:28;;;;;;;5.90;4.72;;;20.40;99.90;;;;;;5075121;28;20047;-79
2023/07/22 09:07:56;;;;;;;5.60;4.70;;;20.60;99.90;;;;;;5044981;28;20047;-79
2023/07/22 09:10:24;;;;;;;5.72;4.38;;;20.60;99.90;;;;;;5042055;28;20482;-81
2023/07/22 09:12:51;;;;;;;7.00;4.78;;;20.50;99.90;;;;;;5057430;28;20043;-79
2023/07/22 09:15:18;;;;;;;6.20;4.43;;;20.60;99.90;;;;;;5058011;28;20104;-79
2023/07/22 09:17:44;;;;;;;6.05;4.20;;;20.60;99.90;;;;;;5057094;28;20083;-78
2023/07/22 09:20:15;;;;;;;5.68;3.95;;;20.40;99.90;;;;;;5025584;28;20035;-79
2023/07/22 09:22:46;;;;;;;4.35;3.90;;;20.50;99.90;;;;;;5053011;28;20040;-80
2023/07/22 09:25:16;;;;;;;5.53;4.13;;;20.50;99.90;;;;;;5041657;28;20385;-80
2023/07/22 09:27:43;;;;;;;8.43;4.88;;;20.60;99.90;;;;;;5042823;28;20113;-79
2023/07/22 09:30:35;;;;;;;4.38;3.90;;;20.50;99.90;;;;;;5025241;28;20033;-82
2023/07/22 09:33:19;;;;;;;5.35;4.18;;;20.60;99.90;;;;;;5041223;28;20189;-84
2023/07/22 09:35:48;;;;;;;5.55;4.18;;;20.10;99.90;;;;;;5079492;28;20044;-84
2023/07/22 09:38:17;;;;;;;5.57;4.00;;;20.10;99.90;;;;;;5045878;28;20048;-82
2023/07/22 09:40:43;;;;;;;8.32;4.47;;;20.00;99.90;;;;;;5045625;28;20044;-84
2023/07/22 09:43:12;;;;;;;6.07;4.97;;;19.60;99.90;;;;;;5078939;28;20254;-85
2023/07/22 09:45:38;;;;;;;9.70;5.70;;;19.20;99.90;;;;;;5046471;28;20048;-81
2023/07/22 09:48:05;;;;;;;7.40;5.85;;;18.90;99.90;;;;;;5080264;28;20079;-81
2023/07/22 09:50:31;;;;;;;7.93;6.22;;;18.90;99.90;;;;;;5077985;28;20070;-80
2023/07/22 09:52:59;;;;;;;12.05;6.80;;;18.80;99.90;;;;;;5077743;28;20262;-80
2023/07/22 09:55:30;;;;;;;10.23;5.97;;;18.80;99.90;;;;;;5078701;28;20053;-79
2023/07/22 09:58:05;;;;;;;7.97;6.65;;;18.70;99.90;;;;;;5077184;28;20033;-79
2023/07/22 10:00:35;;;;;;;8.43;6.35;;;18.60;99.90;;;;;;5076464;28;20034;-81
2023/07/22 10:03:04;;;;;;;11.38;7.57;;;18.60;99.90;;;;;;5026402;28;20181;-81
2023/07/22 10:05:36;;;;;;;10.75;7.05;;;18.80;99.90;;;;;;5045186;28;20034;-83
2023/07/22 10:08:03;;;;;;;10.30;7.65;;;18.90;99.90;;;;;;5062173;28;20040;-82
2023/07/22 10:10:37;;;;;;;10.55;7.40;;;18.80;99.90;;;;;;5045674;28;20068;-82
2023/07/22 10:13:04;;;;;;;9.40;7.25;;;18.90;99.90;;;;;;5025328;28;20072;-80
2023/07/22 10:15:35;;;;;;;11.35;7.93;;;18.80;99.90;;;;;;5044083;28;20204;-84
2023/07/22 10:18:03;;;;;;;12.32;8.27;;;18.70;99.90;;;;;;5078886;28;20315;-81
2023/07/22 10:20:30;;;;;;;11.75;7.50;;;18.50;99.90;;;;;;5045541;28;20189;-82
2023/07/22 10:22:56;;;;;;;12.73;7.28;;;18.60;99.90;;;;;;5063284;28;20063;-83
2023/07/22 10:25:22;;;;;;;14.00;7.93;;;18.70;99.90;;;;;;5060997;28;20044;-83
2023/07/22 10:27:49;;;;;;;11.45;7.22;;;18.80;99.90;;;;;;5060588;28;20369;-82
2023/07/22 10:30:17;;;;;;;9.02;6.75;;;18.80;99.90;;;;;;5027490;28;20056;-81
2023/07/22 10:32:46;;;;;;;9.48;7.07;;;18.80;99.90;;;;;;5047022;28;20028;-81
2023/07/22 10:35:32;;;;;;;9.27;6.47;;;18.70;99.90;;;;;;5056962;28;20290;-82
2023/07/22 10:38:08;;;;;;;8.27;6.10;;;18.60;99.90;;;;;;5053866;28;20126;-81
2023/07/22 10:40:50;;;;;;;9.68;6.63;;;18.70;99.90;;;;;;5064449;28;20035;-80
2023/07/22 10:43:20;;;;;;;10.30;5.93;;;18.70;99.90;;;;;;5068793;28;20036;-81
2023/07/22 10:45:55;;;;;;;7.63;5.90;;;18.80;99.90;;;;;;5043845;28;20223;-82
2023/07/22 10:48:25;;;;;;;7.93;5.20;;;18.80;99.90;;;;;;5041596;28;20068;-80
2023/07/22 10:50:53;;;;;;;8.15;5.85;;;18.80;99.90;;;;;;5060601;28;20235;-83
2023/07/22 10:53:25;;;;;;;6.40;5.07;;;18.90;99.90;;;;;;5076862;28;20098;-84
2023/07/22 10:56:14;;;;;;;7.25;5.13;;;19.10;99.90;;;;;;5045087;28;20033;-83
2023/07/22 10:59:09;;;;;;;5.63;4.95;;;19.00;99.90;;;;;;5061258;28;20032;-81
2023/07/22 11:01:36;;;;;;;6.20;5.25;;;19.00;99.90;;;;;;5043031;28;20323;-78
2023/07/22 11:04:37;;;;;;;5.75;4.40;;;19.00;99.90;;;;;;5058944;28;20036;-81
2023/07/22 11:07:05;;;;;;;6.40;5.13;;;18.70;99.90;;;;;;5062510;28;20029;-83
2023/07/22 11:09:32;;;;;;;7.93;4.60;;;18.70;99.90;;;;;;5045287;28;20256;-81
2023/07/22 11:12:16;;;;;;;8.57;5.35;;;18.60;99.90;;;;;;5061631;28;20029;-83
2023/07/22 11:14:48;;;;;;;7.13;5.07;;;18.50;99.90;;;;;;5077738;28;20024;-82
2023/07/22 11:17:14;;;;;;;6.55;5.28;;;18.50;99.90;;;;;;5078308;28;20048;-81
2023/07/22 11:19:41;;;;;;;6.22;4.95;;;18.40;99.90;;;;;;5078275;28;20033;-90
2023/07/22 11:22:07;;;;;;;7.53;5.30;;;18.50;99.90;;;;;;5073966;28;20032;-81
2023/07/22 11:24:35;;;;;;;6.22;5.15;;;18.60;99.90;;;;;;5052355;28;20091;-84
2023/07/22 11:27:10;;;;;;;8.73;5.88;;;18.40;99.90;;;;;;5046093;28;20033;-84
2023/07/22 11:29:36;;;;;;;7.50;5.40;;;18.60;99.90;;;;;;5063148;28;20315;-89
2023/07/22 11:32:02;;;;;;;5.78;4.72;;;18.50;99.90;;;;;;5029342;28;20037;-86
2023/07/22 11:34:28;;;;;;;8.48;5.72;;;18.50;99.90;;;;;;5045454;28;20104;-85
2023/07/22 11:36:57;;;;;;;7.00;5.43;;;18.50;99.90;;;;;;5073221;28;20272;-87
2023/07/22 11:39:31;;;;;;;8.88;5.25;;;18.50;99.90;;;;;;5074531;28;20054;-83
2023/07/22 11:41:59;;;;;;;8.37;5.50;;;18.40;99.90;;;;;;5076990;28;20223;-84
2023/07/22 11:44:28;;;;;;;5.18;4.45;;;18.30;99.90;;;;;;5044379;28;20028;-84
2023/07/22 11:47:01;;;;;;;6.97;5.05;;;18.20;99.90;;;;;;5076192;28;20249;-84
2023/07/22 11:49:39;;;;;;;7.40;5.95;;;18.10;99.90;;;;;;5034175;28;20463;-88
2023/07/22 11:55:55;;;;;;;11.68;5.72;;;18.20;99.90;;;;;;5021906;28;20084;-86
2023/07/22 12:02:41;;;;;;;8.20;6.68;;;18.20;99.90;;;;;;4975629;28;20046;-83
2023/07/22 12:05:22;;;;;;;8.27;6.97;;;18.20;99.90;;;;;;5000511;28;20033;-84
2023/07/22 12:07:47;;;;;;;9.85;7.50;;;18.20;99.90;;;;;;5000853;28;20051;-82
2023/07/22 12:10:15;;;;;;;8.30;7.13;;;17.70;99.90;;;;;;5002835;28;20144;-75
2023/07/22 12:12:45;;;;;;;9.35;6.40;;;17.70;99.90;;;;;;5004128;28;20037;-81
2023/07/22 12:15:19;;;;;;;8.57;7.05;;;18.10;99.90;;;;;;5018886;28;20052;-81
2023/07/22 12:18:04;;;;;;;8.47;7.57;;;17.70;99.90;;;;;;5003112;28;20040;-81
2023/07/22 12:20:43;;;;;;;8.88;7.93;;;17.90;99.90;;;;;;5003243;28;20029;-82
2023/07/22 12:23:26;;;;;;;11.40;8.82;;;17.80;99.90;;;;;;4308320;26;20076;-87
2023/07/22 12:25:51;;;;;;;11.02;8.57;;;18.10;99.90;;;;;;5017926;28;20080;-87
2023/07/22 12:28:17;;;;;;;10.70;8.43;;;17.70;99.90;;;;;;5017620;28;20041;-88
2023/07/22 12:30:43;;;;;;;9.13;8.10;;;18.00;99.90;;;;;;5033502;28;20037;-87
2023/07/22 12:33:08;;;;;;;10.52;9.13;;;17.80;99.90;;;;;;5010161;28;20389;-86
2023/07/22 12:35:37;;;;;;;15.27;10.18;;;18.00;99.90;;;;;;5033888;28;20435;-87
2023/07/22 12:38:02;;;;;;;8.82;6.80;;;18.30;99.90;;;;;;5017729;28;20168;-87
2023/07/22 12:40:28;;;;;;;11.25;8.77;;;17.90;99.90;;;;;;5015873;28;20506;-86
2023/07/22 12:42:54;;;;;;;12.65;10.52;;;18.80;99.90;;;;;;5030402;28;20427;-87
2023/07/22 12:45:20;;;;;;;12.50;10.52;;;18.00;99.90;;;;;;5031833;28;20076;-87
2023/07/22 12:47:47;;;;;;;10.98;9.13;;;18.30;99.90;;;;;;4998313;28;20044;-87
2023/07/22 12:50:13;;;;;;;9.65;8.02;;;18.30;99.90;;;;;;5016309;28;20045;-87
2023/07/22 12:52:39;;;;;;;11.65;9.15;;;17.90;99.90;;;;;;5032084;28;20041;-87